Lihue, Hawaii
Current Conditions -  °F | °C
As of 5:53 PM on Sunday 21 Dec 2014 (Local Time) from PHLI Reporting Station
Clear Clear  
Wind Chill: 76°   Ceiling: Unl
Heat Index: 76°   Visibility: 10mi
Dew Point: 56°   Wind: 8mph
Humidity: 50%   Direction: 330°NNW
Pressure: 29.98"   Gusts: NA
Location:  21.98°N, 159.36°W
Report Text: PHLI 220353Z 33007KT 10SM CLR 24/13 A2998 RMK AO2 SLP151 T02440133
Loading
Personal Weather Stations






























Interactive Weather Map New forecast layout! Learn more

10-Day Weather Forecast

Advertisements
Track Severe Weather on mobile